Flight Track Log - Related Links

Times and Time Zones

All times are in EDT time to prevent confusion due to time zone crossing. See the XSR387 flight status page for this flight to view local times or setup timezone preferences in your user account.

Time Position Orientation Groundspeed Altitude Reporting Facility
EDT Latitude Longitude Course Direction KTS MPH feet Rate Location/Type
Wed 11:24:56 PM 37.7586 -97.2189 42° Northeast 139 160 1,900  Level Kansas City Center
Wed 11:26:18 PM 37.7956 -97.1772 42° Northeast 158 182 3,700 1,437 Climbing Kansas City Center
Wed 11:27:18 PM 37.8097 -97.1228 72° East 163 188 5,300 1,537 Climbing Kansas City Center
Wed 11:28:19 PM 37.8244 -97.0658 72° East 169 194 6,800 1,525 Climbing Kansas City Center
Wed 11:29:20 PM 37.8453 -96.9944 70° East 180 207 8,400 1,426 Climbing Kansas City Center
Wed 11:30:21 PM 37.8653 -96.9358 67° East 182 209 9,700 689 Climbing Kansas City Center
Wed 11:31:22 PM 37.8881 -96.8717 66° East 200 230 9,800 -298 Climbing Kansas City Center
Wed 11:32:22 PM 37.9097 -96.7875 72° East 248 285 9,100 -397 Descending Kansas City Center
Wed 11:33:23 PM 37.9297 -96.7058 73° East 244 281 9,000  Descending Kansas City Center
Wed 11:34:24 PM 37.9500 -96.6247 72° East 242 278 9,100  Climbing Kansas City Center
Wed 11:35:25 PM 37.9789 -96.5444 65° Northeast 250 288 9,000 -49 Descending Kansas City Center
Wed 11:36:26 PM 38.0083 -96.4672 64° Northeast 245 282 9,000  Level Kansas City Center
Wed 11:37:27 PM 38.0397 -96.3908 62° Northeast 244 281 9,000  Level Kansas City Center
Wed 11:38:27 PM 38.0736 -96.3153 60° Northeast 245 282 9,000  Level Kansas City Center
Wed 11:39:28 PM 38.1069 -96.2419 60° Northeast 240 276 9,000  Level Kansas City Center
Wed 11:40:29 PM 38.1100 -96.1617 87° East 228 262 9,000  Level Kansas City Center
Wed 11:41:30 PM 38.0928 -96.0742 104° East 222 255 9,000  Level Kansas City Center
Wed 11:42:31 PM 38.0792 -95.9967 103° East 234 269 9,000 50 Level Kansas City Center
Wed 11:43:31 PM 38.0619 -95.9208 106° East 235 270 9,100  Climbing Kansas City Center
Wed 11:44:32 PM 38.0428 -95.8292 105° East 237 273 9,000  Descending Kansas City Center
Wed 11:45:33 PM 38.0428 -95.7481 90° East 249 287 9,100  Climbing Kansas City Center
Wed 11:46:34 PM 38.0550 -95.6647 79° East 251 289 9,000  Descending Kansas City Center
Wed 11:47:34 PM 38.0681 -95.5692 80° East 248 285 9,100  Climbing Kansas City Center
Wed 11:48:35 PM 38.0792 -95.4878 80° East 246 283 9,000 -49 Descending Kansas City Center
Wed 11:49:36 PM 38.1014 -95.4061 71° East 252 290 9,000  Level Kansas City Center
Wed 11:50:37 PM 38.1278 -95.3150 70° East 248 285 9,000  Level Kansas City Center
Wed 11:51:37 PM 38.1489 -95.2381 71° East 243 280 9,000  Level Kansas City Center
Wed 11:52:38 PM 38.1703 -95.1608 71° East 242 278 9,000  Level Kansas City Center
Wed 11:53:39 PM 38.1992 -95.0717 68° East 246 283 9,000  Level Kansas City Center
Wed 11:54:39 PM 38.2369 -95.0000 56° Northeast 251 289 9,000  Level Kansas City Center
Wed 11:55:40 PM 38.2717 -94.9264 59° Northeast 254 292 9,000 49 Level Kansas City Center
Wed 11:56:41 PM 38.3108 -94.8361 61° Northeast 259 298 9,100 -50 Climbing Kansas City Center
Wed 11:57:41 PM 38.3453 -94.7617 59° Northeast 256 295 8,900 -694 Descending Kansas City Center
Wed 11:58:42 PM 38.3892 -94.6950 50° Northeast 258 297 7,700 -934 Descending Kansas City Center
Wed 11:59:43 PM 38.4483 -94.6331 39° Northeast 249 287 7,000 -347 Descending Kansas City Center
Thu 12:00:43 AM 38.5033 -94.6233 North 214 246 7,000  Level Kansas City Center
Thu 12:01:44 AM 38.5617 -94.6236 360° North 221 254 7,000  Level Kansas City Center
Thu 12:02:45 AM 38.6303 -94.6394 350° North 224 258 7,000 -98 Level Kansas City Center
Thu 12:03:46 AM 38.6844 -94.6583 345° North 211 243 6,800 -744 Descending Kansas City Center
Thu 12:04:46 AM 38.7458 -94.6736 349° North 230 265 5,500 -1,289 Descending Kansas City Center
Thu 12:05:47 AM 38.8183 -94.6981 345° North 239 275 4,200 -787 Descending Kansas City Center
Thu 12:06:48 AM 38.8736 -94.7097 351° North 211 243 3,900 -446 Descending Kansas City Center
Thu 12:07:48 AM 38.9294 -94.7125 358° North 209 241 3,300 -397 Descending Kansas City Center
Thu 12:08:49 AM 38.9917 -94.6903 16° North 205 236 3,100 -246 Descending Kansas City Center
Thu 12:09:50 AM 39.0358 -94.6608 27° Northeast 191 220 2,800 -397 Descending Kansas City Center
Thu 12:10:50 AM 39.0706 -94.6211 42° Northeast 175 201 2,300 -843 Descending Kansas City Center
Thu 12:11:51 AM 39.1064 -94.5961 28° Northeast 137 158 1,100 -1,180 Descending Kansas City Center

Login

Don't have an account? Register now (free) for customized features, flight alerts, and more!